sensor_id;sensor_type;location;lat;lon;timestamp;pressure;altitude;pressure_sealevel;temperature;humidity
26697;BME280;14312;52.614;13.496;2022-07-18T00:00:00;101849.75;;;23.64;35.92
26697;BME280;14312;52.614;13.496;2022-07-18T00:02:46;101845.69;;;23.62;36.13
26697;BME280;14312;52.614;13.496;2022-07-18T00:05:32;101854.97;;;23.61;36.23
26697;BME280;14312;52.614;13.496;2022-07-18T00:08:18;101847.09;;;23.59;36.19
26697;BME280;14312;52.614;13.496;2022-07-18T00:11:04;101843.59;;;23.59;36.30
26697;BME280;14312;52.614;13.496;2022-07-18T00:13:50;101837.63;;;23.57;36.17
26697;BME280;14312;52.614;13.496;2022-07-18T00:16:37;101836.81;;;23.56;36.15
26697;BME280;14312;52.614;13.496;2022-07-18T00:19:22;101830.84;;;23.54;36.25
26697;BME280;14312;52.614;13.496;2022-07-18T00:22:08;101831.97;;;23.53;36.62
26697;BME280;14312;52.614;13.496;2022-07-18T00:24:54;101835.00;;;23.52;36.69
26697;BME280;14312;52.614;13.496;2022-07-18T00:27:40;101832.56;;;23.50;36.64
26697;BME280;14312;52.614;13.496;2022-07-18T00:30:26;101836.41;;;23.49;36.84
26697;BME280;14312;52.614;13.496;2022-07-18T00:33:11;101833.97;;;23.48;36.61
26697;BME280;14312;52.614;13.496;2022-07-18T00:35:57;101847.81;;;23.46;36.68
26697;BME280;14312;52.614;13.496;2022-07-18T00:38:43;101845.44;;;23.45;37.02
26697;BME280;14312;52.614;13.496;2022-07-18T00:41:29;101846.00;;;23.41;36.95
26697;BME280;14312;52.614;13.496;2022-07-18T00:44:21;101853.88;;;23.43;37.37
26697;BME280;14312;52.614;13.496;2022-07-18T00:47:07;101850.13;;;23.39;37.20
26697;BME280;14312;52.614;13.496;2022-07-18T00:52:39;101843.66;;;23.35;37.32
26697;BME280;14312;52.614;13.496;2022-07-18T00:55:25;101851.81;;;23.35;37.43
26697;BME280;14312;52.614;13.496;2022-07-18T00:58:12;101850.22;;;23.34;37.40
26697;BME280;14312;52.614;13.496;2022-07-18T01:00:58;101840.72;;;23.31;37.70
26697;BME280;14312;52.614;13.496;2022-07-18T01:04:03;101850.78;;;23.31;37.71
26697;BME280;14312;52.614;13.496;2022-07-18T01:06:51;101851.59;;;23.31;37.69
26697;BME280;14312;52.614;13.496;2022-07-18T01:09:37;101841.31;;;23.28;37.69
26697;BME280;14312;52.614;13.496;2022-07-18T01:12:23;101852.19;;;23.28;37.67
26697;BME280;14312;52.614;13.496;2022-07-18T01:15:08;101842.72;;;23.26;37.87
26697;BME280;14312;52.614;13.496;2022-07-18T01:17:54;101849.25;;;23.25;37.74
26697;BME280;14312;52.614;13.496;2022-07-18T01:20:40;101843.00;;;23.24;37.83
26697;BME280;14312;52.614;13.496;2022-07-18T01:23:26;101841.69;;;23.22;37.86
26697;BME280;14312;52.614;13.496;2022-07-18T01:26:13;101840.88;;;23.21;37.84
26697;BME280;14312;52.614;13.496;2022-07-18T01:29:00;101833.00;;;23.20;37.89
26697;BME280;14312;52.614;13.496;2022-07-18T01:31:46;101827.34;;;23.16;38.05
26697;BME280;14312;52.614;13.496;2022-07-18T01:34:31;101833.09;;;23.15;38.19
26697;BME280;14312;52.614;13.496;2022-07-18T01:37:18;101838.53;;;23.15;38.22
26697;BME280;14312;52.614;13.496;2022-07-18T01:40:10;101834.19;;;23.14;38.66
26697;BME280;14312;52.614;13.496;2022-07-18T01:42:57;101837.00;;;23.09;38.19
26697;BME280;14312;52.614;13.496;2022-07-18T01:45:42;101840.81;;;23.08;38.24
26697;BME280;14312;52.614;13.496;2022-07-18T01:48:28;101843.00;;;23.06;38.42
26697;BME280;14312;52.614;13.496;2022-07-18T01:51:14;101848.22;;;23.02;38.33
26697;BME280;14312;52.614;13.496;2022-07-18T01:54:00;101851.25;;;23.00;38.49
26697;BME280;14312;52.614;13.496;2022-07-18T01:56:47;101848.00;;;22.98;38.46
26697;BME280;14312;52.614;13.496;2022-07-18T01:59:34;101844.75;;;22.96;38.60
26697;BME280;14312;52.614;13.496;2022-07-18T02:02:20;101850.81;;;22.93;38.61
26697;BME280;14312;52.614;13.496;2022-07-18T02:05:06;101850.28;;;22.91;38.60
26697;BME280;14312;52.614;13.496;2022-07-18T02:07:52;101848.13;;;22.88;38.71
26697;BME280;14312;52.614;13.496;2022-07-18T02:10:38;101839.78;;;22.85;38.60
26697;BME280;14312;52.614;13.496;2022-07-18T02:13:24;101844.69;;;22.83;38.68
26697;BME280;14312;52.614;13.496;2022-07-18T02:16:10;101843.94;;;22.77;38.55
26697;BME280;14312;52.614;13.496;2022-07-18T02:18:56;101841.81;;;22.74;38.69
26697;BME280;14312;52.614;13.496;2022-07-18T02:21:42;101839.13;;;22.69;38.79
26697;BME280;14312;52.614;13.496;2022-07-18T02:24:28;101829.63;;;22.66;38.69
26697;BME280;14312;52.614;13.496;2022-07-18T02:27:13;101822.38;;;22.62;38.78
26697;BME280;14312;52.614;13.496;2022-07-18T02:29:59;101826.78;;;22.58;38.96
26697;BME280;14312;52.614;13.496;2022-07-18T02:32:45;101832.78;;;22.55;38.86
26697;BME280;14312;52.614;13.496;2022-07-18T02:35:31;101824.09;;;22.53;38.89
26697;BME280;14312;52.614;13.496;2022-07-18T02:38:17;101836.66;;;22.49;38.89
26697;BME280;14312;52.614;13.496;2022-07-18T02:41:03;101830.22;;;22.45;38.88
26697;BME280;14312;52.614;13.496;2022-07-18T02:43:49;101829.97;;;22.41;38.86
26697;BME280;14312;52.614;13.496;2022-07-18T02:46:35;101840.09;;;22.36;38.97
26697;BME280;14312;52.614;13.496;2022-07-18T02:49:21;101833.59;;;22.32;38.95
26697;BME280;14312;52.614;13.496;2022-07-18T02:52:13;101832.56;;;22.27;39.24
26697;BME280;14312;52.614;13.496;2022-07-18T02:54:58;101831.53;;;22.23;38.97
26697;BME280;14312;52.614;13.496;2022-07-18T02:57:46;101825.06;;;22.19;39.19
26697;BME280;14312;52.614;13.496;2022-07-18T03:00:32;101831.34;;;22.15;39.24
26697;BME280;14312;52.614;13.496;2022-07-18T03:03:18;101837.34;;;22.12;39.26
26697;BME280;14312;52.614;13.496;2022-07-18T03:06:04;101828.19;;;22.08;39.39
26697;BME280;14312;52.614;13.496;2022-07-18T03:08:50;101827.13;;;22.04;39.44
26697;BME280;14312;52.614;13.496;2022-07-18T03:11:36;101821.47;;;22.00;39.48
26697;BME280;14312;52.614;13.496;2022-07-18T03:14:22;101823.94;;;21.97;39.59
26697;BME280;14312;52.614;13.496;2022-07-18T03:17:08;101826.41;;;21.93;39.69
26697;BME280;14312;52.614;13.496;2022-07-18T03:19:54;101825.31;;;21.89;39.80
26697;BME280;14312;52.614;13.496;2022-07-18T03:22:40;101825.91;;;21.86;39.65
26697;BME280;14312;52.614;13.496;2022-07-18T03:25:26;101821.06;;;21.83;39.68
26697;BME280;14312;52.614;13.496;2022-07-18T03:28:12;101838.19;;;21.78;39.61
26697;BME280;14312;52.614;13.496;2022-07-18T03:30:57;101823.88;;;21.73;39.37
26697;BME280;14312;52.614;13.496;2022-07-18T03:33:44;101829.84;;;21.70;39.61
26697;BME280;14312;52.614;13.496;2022-07-18T03:36:30;101833.16;;;21.67;39.60
26697;BME280;14312;52.614;13.496;2022-07-18T03:39:16;101827.75;;;21.62;39.79
26697;BME280;14312;52.614;13.496;2022-07-18T03:42:02;101824.00;;;21.58;40.12
26697;BME280;14312;52.614;13.496;2022-07-18T03:44:48;101821.84;;;21.55;40.15
26697;BME280;14312;52.614;13.496;2022-07-18T03:47:34;101826.78;;;21.53;40.34
26697;BME280;14312;52.614;13.496;2022-07-18T03:50:20;101827.31;;;21.49;40.25
26697;BME280;14312;52.614;13.496;2022-07-18T03:53:06;101827.31;;;21.49;40.36
26697;BME280;14312;52.614;13.496;2022-07-18T03:55:52;101821.63;;;21.46;40.58
26697;BME280;14312;52.614;13.496;2022-07-18T03:58:38;101821.63;;;21.46;40.76
26697;BME280;14312;52.614;13.496;2022-07-18T04:01:24;101825.75;;;21.43;41.03
26697;BME280;14312;52.614;13.496;2022-07-18T04:04:10;101824.66;;;21.44;40.75
26697;BME280;14312;52.614;13.496;2022-07-18T04:06:56;101827.38;;;21.44;40.72
26697;BME280;14312;52.614;13.496;2022-07-18T04:09:44;101826.84;;;21.42;40.93
26697;BME280;14312;52.614;13.496;2022-07-18T04:12:30;101822.50;;;21.41;41.08
26697;BME280;14312;52.614;13.496;2022-07-18T04:15:17;101826.84;;;21.42;41.37
26697;BME280;14312;52.614;13.496;2022-07-18T04:18:04;101836.59;;;21.43;41.28
26697;BME280;14312;52.614;13.496;2022-07-18T04:20:50;101835.78;;;21.43;41.57
26697;BME280;14312;52.614;13.496;2022-07-18T04:23:36;101828.47;;;21.43;41.31
26697;BME280;14312;52.614;13.496;2022-07-18T04:26:22;101825.75;;;21.43;41.62
26697;BME280;14312;52.614;13.496;2022-07-18T04:29:08;101826.28;;;21.45;41.55
26697;BME280;14312;52.614;13.496;2022-07-18T04:31:54;101816.22;;;21.46;41.55
26697;BME280;14312;52.614;13.496;2022-07-18T04:34:39;101822.44;;;21.46;41.56
26697;BME280;14312;52.614;13.496;2022-07-18T04:37:25;101825.69;;;21.48;41.68
26697;BME280;14312;52.614;13.496;2022-07-18T04:40:11;101828.94;;;21.51;41.87
26697;BME280;14312;52.614;13.496;2022-07-18T04:42:57;101826.78;;;21.53;41.89
26697;BME280;14312;52.614;13.496;2022-07-18T04:45:44;101822.94;;;21.54;42.21
26697;BME280;14312;52.614;13.496;2022-07-18T04:48:30;101827.81;;;21.57;42.13
26697;BME280;14312;52.614;13.496;2022-07-18T04:51:15;101826.72;;;21.58;42.26
26697;BME280;14312;52.614;13.496;2022-07-18T04:54:01;101821.81;;;21.60;42.21
26697;BME280;14312;52.614;13.496;2022-07-18T04:56:47;101815.81;;;21.63;42.20
26697;BME280;14312;52.614;13.496;2022-07-18T04:59:33;101820.16;;;21.64;41.98
26697;BME280;14312;52.614;13.496;2022-07-18T05:02:19;101817.97;;;21.66;41.99
26697;BME280;14312;52.614;13.496;2022-07-18T05:05:05;101817.66;;;21.67;41.97
26697;BME280;14312;52.614;13.496;2022-07-18T05:07:51;101817.91;;;21.71;41.91
26697;BME280;14312;52.614;13.496;2022-07-18T05:10:37;101826.59;;;21.73;41.99
26697;BME280;14312;52.614;13.496;2022-07-18T05:13:23;101824.91;;;21.77;41.85
26697;BME280;14312;52.614;13.496;2022-07-18T05:16:09;101824.34;;;21.80;41.96
26697;BME280;14312;52.614;13.496;2022-07-18T05:18:55;101817.25;;;21.84;41.91
26697;BME280;14312;52.614;13.496;2022-07-18T05:21:42;101823.44;;;21.89;41.79
26697;BME280;14312;52.614;13.496;2022-07-18T05:24:28;101813.91;;;21.92;41.70
26697;BME280;14312;52.614;13.496;2022-07-18T05:27:14;101815.78;;;21.97;41.69
26697;BME280;14312;52.614;13.496;2022-07-18T05:30:00;101813.31;;;22.00;41.89
26697;BME280;14312;52.614;13.496;2022-07-18T05:32:46;101810.00;;;22.03;41.80
26697;BME280;14312;52.614;13.496;2022-07-18T05:35:33;101808.88;;;22.09;42.02
26697;BME280;14312;52.614;13.496;2022-07-18T05:38:18;101812.63;;;22.13;42.20
26697;BME280;14312;52.614;13.496;2022-07-18T05:41:04;101801.22;;;22.16;42.22
26697;BME280;14312;52.614;13.496;2022-07-18T05:43:50;101796.81;;;22.20;42.27
26697;BME280;14312;52.614;13.496;2022-07-18T05:46:36;101801.06;;;22.26;42.18
26697;BME280;14312;52.614;13.496;2022-07-18T05:49:22;101798.28;;;22.32;42.14
26697;BME280;14312;52.614;13.496;2022-07-18T05:52:08;101799.06;;;22.37;41.93
26697;BME280;14312;52.614;13.496;2022-07-18T05:54:54;101807.94;;;22.43;41.94
26697;BME280;14312;52.614;13.496;2022-07-18T05:57:40;101799.72;;;22.48;42.07
26697;BME280;14312;52.614;13.496;2022-07-18T06:00:25;101795.84;;;22.54;41.87
26697;BME280;14312;52.614;13.496;2022-07-18T06:03:11;101803.63;;;22.60;41.85
26697;BME280;14312;52.614;13.496;2022-07-18T06:05:57;101791.91;;;22.65;41.95
26697;BME280;14312;52.614;13.496;2022-07-18T06:08:43;101795.06;;;22.72;41.82
26697;BME280;14312;52.614;13.496;2022-07-18T06:11:29;101800.97;;;22.79;41.63
26697;BME280;14312;52.614;13.496;2022-07-18T06:14:15;101803.81;;;22.88;41.57
26697;BME280;14312;52.614;13.496;2022-07-18T06:17:01;101803.50;;;22.94;41.51
26697;BME280;14312;52.614;13.496;2022-07-18T06:19:47;101809.84;;;23.03;41.43
26697;BME280;14312;52.614;13.496;2022-07-18T06:22:33;101814.63;;;23.12;41.14
26697;BME280;14312;52.614;13.496;2022-07-18T06:25:20;101816.16;;;23.18;41.44
26697;BME280;14312;52.614;13.496;2022-07-18T06:28:05;101816.31;;;23.26;41.29
26697;BME280;14312;52.614;13.496;2022-07-18T06:30:52;101813.75;;;23.35;41.16
26697;BME280;14312;52.614;13.496;2022-07-18T06:33:40;101819.81;;;23.46;41.09
26697;BME280;14312;52.614;13.496;2022-07-18T06:36:26;101808.56;;;23.52;40.95
26697;BME280;14312;52.614;13.496;2022-07-18T06:39:12;101813.84;;;23.62;40.72
26697;BME280;14312;52.614;13.496;2022-07-18T06:41:58;101819.13;;;23.72;40.71
26697;BME280;14312;52.614;13.496;2022-07-18T06:44:44;101815.69;;;23.80;40.75
26697;BME280;14312;52.614;13.496;2022-07-18T06:47:30;101821.78;;;23.91;40.83
26697;BME280;14312;52.614;13.496;2022-07-18T06:50:16;101820.78;;;24.01;40.67
26697;BME280;14312;52.614;13.496;2022-07-18T06:53:02;101821.78;;;24.05;40.55
26697;BME280;14312;52.614;13.496;2022-07-18T06:55:51;101822.09;;;24.17;40.42
26697;BME280;14312;52.614;13.496;2022-07-18T06:58:37;101815.97;;;24.25;40.55
26697;BME280;14312;52.614;13.496;2022-07-18T07:01:22;101822.34;;;24.34;40.53
26697;BME280;14312;52.614;13.496;2022-07-18T07:04:10;101813.94;;;24.44;40.17
26697;BME280;14312;52.614;13.496;2022-07-18T07:06:56;101809.91;;;24.55;40.00
26697;BME280;14312;52.614;13.496;2022-07-18T07:09:42;101803.13;;;24.67;39.78
26697;BME280;14312;52.614;13.496;2022-07-18T07:12:27;101801.88;;;24.73;39.91
26697;BME280;14312;52.614;13.496;2022-07-18T07:15:14;101801.38;;;24.84;39.95
26697;BME280;14312;52.614;13.496;2022-07-18T07:18:00;101803.41;;;24.92;39.65
26697;BME280;14312;52.614;13.496;2022-07-18T07:20:46;101796.88;;;25.02;39.26
26697;BME280;14312;52.614;13.496;2022-07-18T07:23:32;101796.44;;;25.09;39.08
26697;BME280;14312;52.614;13.496;2022-07-18T07:26:19;101784.50;;;25.18;38.92
26697;BME280;14312;52.614;13.496;2022-07-18T07:29:05;101782.66;;;25.27;38.66
26697;BME280;14312;52.614;13.496;2022-07-18T07:31:51;101780.16;;;25.40;38.24
26697;BME280;14312;52.614;13.496;2022-07-18T07:34:36;101783.91;;;25.52;38.29
26697;BME280;14312;52.614;13.496;2022-07-18T07:37:22;101778.03;;;25.59;38.35
26697;BME280;14312;52.614;13.496;2022-07-18T07:40:09;101773.44;;;25.68;38.51
26697;BME280;14312;52.614;13.496;2022-07-18T07:43:08;101777.50;;;25.79;37.64
26697;BME280;14312;52.614;13.496;2022-07-18T07:45:54;101772.84;;;25.80;37.11
26697;BME280;14312;52.614;13.496;2022-07-18T07:48:41;101768.88;;;25.86;36.86
26697;BME280;14312;52.614;13.496;2022-07-18T07:51:29;101780.00;;;25.98;37.03
26697;BME280;14312;52.614;13.496;2022-07-18T07:54:14;101771.84;;;26.06;36.98
26697;BME280;14312;52.614;13.496;2022-07-18T07:57:00;101771.53;;;26.17;36.75
26697;BME280;14312;52.614;13.496;2022-07-18T07:59:46;101775.72;;;26.23;36.75
26697;BME280;14312;52.614;13.496;2022-07-18T08:02:32;101783.38;;;26.34;36.90
26697;BME280;14312;52.614;13.496;2022-07-18T08:05:18;101784.50;;;26.42;36.64
26697;BME280;14312;52.614;13.496;2022-07-18T08:08:05;101782.75;;;26.55;36.82
26697;BME280;14312;52.614;13.496;2022-07-18T08:10:51;101783.09;;;26.62;36.53
26697;BME280;14312;52.614;13.496;2022-07-18T08:13:38;101781.66;;;26.73;36.46
26697;BME280;14312;52.614;13.496;2022-07-18T08:16:24;101786.19;;;26.77;35.96
26697;BME280;14312;52.614;13.496;2022-07-18T08:19:10;101795.97;;;26.87;35.33
26697;BME280;14312;52.614;13.496;2022-07-18T08:21:56;101777.53;;;26.93;35.46
26697;BME280;14312;52.614;13.496;2022-07-18T08:24:42;101779.91;;;27.03;35.03
26697;BME280;14312;52.614;13.496;2022-07-18T08:27:28;101778.63;;;27.09;34.40
26697;BME280;14312;52.614;13.496;2022-07-18T08:30:14;101773.94;;;27.18;34.25
26697;BME280;14312;52.614;13.496;2022-07-18T08:33:00;101779.41;;;27.26;34.77
26697;BME280;14312;52.614;13.496;2022-07-18T08:35:46;101776.19;;;27.33;34.98
26697;BME280;14312;52.614;13.496;2022-07-18T08:38:32;101780.34;;;27.39;33.99
26697;BME280;14312;52.614;13.496;2022-07-18T08:41:18;101783.22;;;27.43;34.25
26697;BME280;14312;52.614;13.496;2022-07-18T08:44:05;101786.94;;;27.47;33.95
26697;BME280;14312;52.614;13.496;2022-07-18T08:46:54;101786.13;;;27.46;33.56
26697;BME280;14312;52.614;13.496;2022-07-18T08:49:42;101781.59;;;27.50;33.14
26697;BME280;14312;52.614;13.496;2022-07-18T08:52:28;101777.13;;;27.54;33.35
26697;BME280;14312;52.614;13.496;2022-07-18T08:55:14;101778.75;;;27.55;33.41
26697;BME280;14312;52.614;13.496;2022-07-18T08:58:00;101780.66;;;27.63;33.38
26697;BME280;14312;52.614;13.496;2022-07-18T09:00:47;101765.78;;;27.73;33.30
26697;BME280;14312;52.614;13.496;2022-07-18T09:03:32;101768.00;;;27.80;32.67
26697;BME280;14312;52.614;13.496;2022-07-18T09:06:18;101765.75;;;27.82;32.71
26697;BME280;14312;52.614;13.496;2022-07-18T09:09:04;101763.50;;;27.84;32.27
26697;BME280;14312;52.614;13.496;2022-07-18T09:11:52;101769.06;;;27.96;32.67
26697;BME280;14312;52.614;13.496;2022-07-18T09:14:41;101773.25;;;28.02;32.40
26697;BME280;14312;52.614;13.496;2022-07-18T09:17:27;101771.91;;;28.08;32.43
26697;BME280;14312;52.614;13.496;2022-07-18T09:20:15;101782.53;;;28.18;32.69
26697;BME280;14312;52.614;13.496;2022-07-18T09:23:12;101766.84;;;28.27;31.22
26697;BME280;14312;52.614;13.496;2022-07-18T09:25:59;101762.31;;;28.31;32.77
26697;BME280;14312;52.614;13.496;2022-07-18T09:36:20;101767.97;;;28.56;32.85
26697;BME280;14312;52.614;13.496;2022-07-18T09:39:19;101759.78;;;28.68;32.57
26697;BME280;14312;52.614;13.496;2022-07-18T09:42:13;101774.72;;;28.79;32.59
26697;BME280;14312;52.614;13.496;2022-07-18T09:44:59;101768.25;;;28.84;32.33
26697;BME280;14312;52.614;13.496;2022-07-18T09:47:49;101762.00;;;28.95;32.22
26697;BME280;14312;52.614;13.496;2022-07-18T09:50:39;101767.44;;;29.04;32.04
26697;BME280;14312;52.614;13.496;2022-07-18T09:53:45;101754.75;;;29.11;31.42
26697;BME280;14312;52.614;13.496;2022-07-18T09:56:31;101759.13;;;29.12;31.44
26697;BME280;14312;52.614;13.496;2022-07-18T09:59:19;101761.63;;;29.17;31.44
26697;BME280;14312;52.614;13.496;2022-07-18T10:02:05;101754.00;;;29.23;31.32
26697;BME280;14312;52.614;13.496;2022-07-18T10:04:51;101746.06;;;29.21;31.05
26697;BME280;14312;52.614;13.496;2022-07-18T10:07:37;101754.22;;;29.30;31.34
26697;BME280;14312;52.614;13.496;2022-07-18T10:10:23;101754.84;;;29.36;31.03
26697;BME280;14312;52.614;13.496;2022-07-18T10:13:11;101767.22;;;29.42;31.05
26697;BME280;14312;52.614;13.496;2022-07-18T10:15:58;101746.66;;;29.48;31.41
26697;BME280;14312;52.614;13.496;2022-07-18T10:18:43;101746.44;;;29.53;31.40
26697;BME280;14312;52.614;13.496;2022-07-18T10:21:30;101747.34;;;29.57;31.24
26697;BME280;14312;52.614;13.496;2022-07-18T10:24:17;101756.94;;;29.63;31.36
26697;BME280;14312;52.614;13.496;2022-07-18T10:27:20;101759.72;;;29.75;30.46
26697;BME280;14312;52.614;13.496;2022-07-18T10:30:10;101748.03;;;29.78;30.56
26697;BME280;14312;52.614;13.496;2022-07-18T10:32:57;101756.75;;;29.80;30.57
26697;BME280;14312;52.614;13.496;2022-07-18T10:36:08;101750.13;;;29.93;30.43
26697;BME280;14312;52.614;13.496;2022-07-18T10:39:08;101754.25;;;30.00;30.58
26697;BME280;14312;52.614;13.496;2022-07-18T10:44:40;101750.59;;;30.08;30.45
26697;BME280;14312;52.614;13.496;2022-07-18T10:47:28;101741.44;;;30.16;30.63
26697;BME280;14312;52.614;13.496;2022-07-18T10:50:14;101747.47;;;30.21;30.22
26697;BME280;14312;52.614;13.496;2022-07-18T10:53:00;101744.63;;;30.30;30.26
26697;BME280;14312;52.614;13.496;2022-07-18T10:55:46;101734.50;;;30.34;30.76
26697;BME280;14312;52.614;13.496;2022-07-18T10:58:38;101733.56;;;30.42;30.34
26697;BME280;14312;52.614;13.496;2022-07-18T11:01:25;101732.91;;;30.45;30.16
26697;BME280;14312;52.614;13.496;2022-07-18T11:07:15;101736.78;;;30.56;29.78
26697;BME280;14312;52.614;13.496;2022-07-18T11:10:01;101727.38;;;30.57;29.93
26697;BME280;14312;52.614;13.496;2022-07-18T11:16:21;101726.44;;;30.65;29.22
26697;BME280;14312;52.614;13.496;2022-07-18T11:21:56;101729.72;;;30.71;29.21
26697;BME280;14312;52.614;13.496;2022-07-18T11:24:42;101718.84;;;30.74;29.93
26697;BME280;14312;52.614;13.496;2022-07-18T11:27:30;101720.66;;;30.83;29.53
26697;BME280;14312;52.614;13.496;2022-07-18T11:30:17;101713.28;;;30.87;29.94
26697;BME280;14312;52.614;13.496;2022-07-18T11:33:03;101722.41;;;30.91;29.75
26697;BME280;14312;52.614;13.496;2022-07-18T11:35:50;101703.78;;;31.00;29.90
26697;BME280;14312;52.614;13.496;2022-07-18T11:38:38;101705.72;;;31.11;29.50
26697;BME280;14312;52.614;13.496;2022-07-18T11:41:24;101689.28;;;31.15;29.68
26697;BME280;14312;52.614;13.496;2022-07-18T11:44:18;101692.41;;;31.29;28.76
26697;BME280;14312;52.614;13.496;2022-07-18T11:47:09;101695.34;;;31.36;28.78
26697;BME280;14312;52.614;13.496;2022-07-18T11:49:56;101685.22;;;31.40;29.42
26697;BME280;14312;52.614;13.496;2022-07-18T11:52:43;101681.47;;;31.48;29.17
26697;BME280;14312;52.614;13.496;2022-07-18T11:55:36;101680.25;;;31.62;29.18
26697;BME280;14312;52.614;13.496;2022-07-18T11:58:22;101675.63;;;31.66;29.30
26697;BME280;14312;52.614;13.496;2022-07-18T12:01:08;101676.25;;;31.75;29.08
26697;BME280;14312;52.614;13.496;2022-07-18T12:03:54;101672.03;;;31.81;29.14
26697;BME280;14312;52.614;13.496;2022-07-18T12:06:40;101664.38;;;31.90;29.23
26697;BME280;14312;52.614;13.496;2022-07-18T12:09:26;101667.31;;;31.97;28.64
26697;BME280;14312;52.614;13.496;2022-07-18T12:12:14;101662.00;;;32.08;28.97
26697;BME280;14312;52.614;13.496;2022-07-18T12:15:04;101664.16;;;32.14;28.81
26697;BME280;14312;52.614;13.496;2022-07-18T12:17:50;101661.09;;;32.19;27.83
26697;BME280;14312;52.614;13.496;2022-07-18T12:20:36;101657.31;;;32.27;28.23
26697;BME280;14312;52.614;13.496;2022-07-18T12:23:27;101656.81;;;32.41;27.59
26697;BME280;14312;52.614;13.496;2022-07-18T12:26:30;101657.75;;;32.49;27.67
26697;BME280;14312;52.614;13.496;2022-07-18T12:29:17;101655.75;;;32.46;27.92
26697;BME280;14312;52.614;13.496;2022-07-18T12:32:14;101659.50;;;32.57;27.46
26697;BME280;14312;52.614;13.496;2022-07-18T12:35:04;101648.47;;;32.57;27.66
26697;BME280;14312;52.614;13.496;2022-07-18T12:38:04;101647.75;;;32.60;26.99
26697;BME280;14312;52.614;13.496;2022-07-18T12:40:58;101641.47;;;32.63;27.44
26697;BME280;14312;52.614;13.496;2022-07-18T12:43:45;101639.03;;;32.58;26.84
26697;BME280;14312;52.614;13.496;2022-07-18T12:46:30;101635.97;;;32.63;27.45
26697;BME280;14312;52.614;13.496;2022-07-18T12:49:16;101628.56;;;32.67;27.46
26697;BME280;14312;52.614;13.496;2022-07-18T12:52:02;101626.69;;;32.71;27.15
26697;BME280;14312;52.614;13.496;2022-07-18T12:54:49;101623.59;;;32.76;27.13
26697;BME280;14312;52.614;13.496;2022-07-18T12:57:35;101628.41;;;32.79;27.13
26697;BME280;14312;52.614;13.496;2022-07-18T13:00:21;101615.03;;;32.81;26.86
26697;BME280;14312;52.614;13.496;2022-07-18T13:03:07;101620.91;;;32.80;26.64
26697;BME280;14312;52.614;13.496;2022-07-18T13:05:53;101618.09;;;32.76;26.55
26697;BME280;14312;52.614;13.496;2022-07-18T13:08:38;101621.16;;;32.71;26.23
26697;BME280;14312;52.614;13.496;2022-07-18T13:11:24;101621.16;;;32.71;26.61
26697;BME280;14312;52.614;13.496;2022-07-18T13:14:10;101634.06;;;32.67;26.26
26697;BME280;14312;52.614;13.496;2022-07-18T13:16:57;101617.06;;;32.65;26.18
26697;BME280;14312;52.614;13.496;2022-07-18T13:19:43;101607.19;;;32.64;26.24
26697;BME280;14312;52.614;13.496;2022-07-18T13:22:30;101615.47;;;32.64;26.13
26697;BME280;14312;52.614;13.496;2022-07-18T13:25:22;101612.72;;;32.64;26.18
26697;BME280;14312;52.614;13.496;2022-07-18T13:28:08;101607.63;;;32.66;26.38
26697;BME280;14312;52.614;13.496;2022-07-18T13:30:54;101603.00;;;32.70;26.45
26697;BME280;14312;52.614;13.496;2022-07-18T13:33:41;101604.28;;;32.76;26.13
26697;BME280;14312;52.614;13.496;2022-07-18T13:36:27;101593.75;;;32.82;26.27
26697;BME280;14312;52.614;13.496;2022-07-18T13:39:13;101591.47;;;32.87;26.55
26697;BME280;14312;52.614;13.496;2022-07-18T13:41:59;101601.75;;;32.90;25.86
26697;BME280;14312;52.614;13.496;2022-07-18T13:44:48;101592.75;;;32.93;25.89
26697;BME280;14312;52.614;13.496;2022-07-18T13:47:34;101596.38;;;32.97;25.42
26697;BME280;14312;52.614;13.496;2022-07-18T13:50:20;101590.91;;;33.01;25.74
26697;BME280;14312;52.614;13.496;2022-07-18T13:53:06;101592.56;;;33.05;25.86
26697;BME280;14312;52.614;13.496;2022-07-18T13:55:52;101597.78;;;33.11;26.00
26697;BME280;14312;52.614;13.496;2022-07-18T13:58:38;101594.34;;;33.17;25.42
26697;BME280;14312;52.614;13.496;2022-07-18T14:01:24;101588.16;;;33.24;25.21
26697;BME280;14312;52.614;13.496;2022-07-18T14:04:10;101587.88;;;33.32;25.82
26697;BME280;14312;52.614;13.496;2022-07-18T14:06:56;101589.97;;;33.39;26.00
26697;BME280;14312;52.614;13.496;2022-07-18T14:09:42;101591.66;;;33.47;25.68
26697;BME280;14312;52.614;13.496;2022-07-18T14:12:28;101596.50;;;33.54;25.11
26697;BME280;14312;52.614;13.496;2022-07-18T14:15:14;101598.88;;;33.55;24.92
26697;BME280;14312;52.614;13.496;2022-07-18T14:18:00;101592.72;;;33.65;25.06
26697;BME280;14312;52.614;13.496;2022-07-18T14:20:47;101581.00;;;33.72;24.90
26697;BME280;14312;52.614;13.496;2022-07-18T14:23:33;101589.03;;;33.80;25.16
26697;BME280;14312;52.614;13.496;2022-07-18T14:26:18;101584.75;;;33.87;25.37
26697;BME280;14312;52.614;13.496;2022-07-18T14:29:04;101583.66;;;33.95;24.86
26697;BME280;14312;52.614;13.496;2022-07-18T14:31:50;101578.59;;;34.00;24.82
26697;BME280;14312;52.614;13.496;2022-07-18T14:34:36;101561.72;;;34.09;24.64
26697;BME280;14312;52.614;13.496;2022-07-18T14:37:22;101560.22;;;34.18;24.46
26697;BME280;14312;52.614;13.496;2022-07-18T14:40:08;101546.13;;;34.27;24.41
26697;BME280;14312;52.614;13.496;2022-07-18T14:42:54;101542.25;;;34.35;24.13